createdAt,value
2018-08-10T00:00:33.190Z,58.70
2018-08-10T00:03:36.506Z,59.50
2018-08-10T00:06:39.519Z,59.60
2018-08-10T00:09:42.655Z,59.10
2018-08-10T00:12:45.785Z,58.60
2018-08-10T00:15:48.961Z,59.10
2018-08-10T00:18:52.082Z,58.50
2018-08-10T00:21:55.220Z,58.40
2018-08-10T00:24:58.424Z,58.20
2018-08-10T00:28:01.723Z,58.60
2018-08-10T00:31:04.982Z,58.40
2018-08-10T00:34:08.201Z,57.80
2018-08-10T00:37:11.341Z,57.80
2018-08-10T00:40:17.798Z,57.50
2018-08-10T00:43:20.964Z,58.20
2018-08-10T00:46:24.102Z,58.40
2018-08-10T00:49:27.218Z,58.40
2018-08-10T00:52:30.406Z,57.70
2018-08-10T00:55:33.722Z,58.30
2018-08-10T00:58:36.975Z,57.50
2018-08-10T01:01:40.135Z,57.80
2018-08-10T01:04:43.323Z,57.50
2018-08-10T01:07:46.474Z,57.30
2018-08-10T01:10:49.665Z,57.00
2018-08-10T01:13:52.754Z,57.20
2018-08-10T01:16:55.876Z,57.00
2018-08-10T01:19:59.096Z,56.90
2018-08-10T01:23:07.134Z,56.70
2018-08-10T01:26:10.259Z,56.40
2018-08-10T01:29:13.425Z,56.10
2018-08-10T01:32:16.530Z,57.00
2018-08-10T01:35:19.693Z,56.50
2018-08-10T01:38:22.991Z,55.80
2018-08-10T01:41:26.097Z,55.90
2018-08-10T01:44:29.230Z,56.10
2018-08-10T01:47:32.338Z,55.90
2018-08-10T01:50:35.465Z,56.00
2018-08-10T01:53:38.614Z,56.30
2018-08-10T01:56:41.794Z,56.10
2018-08-10T01:59:44.851Z,55.50
2018-08-10T02:02:48.055Z,55.80
2018-08-10T02:05:51.110Z,56.40
2018-08-10T02:08:54.244Z,56.00
2018-08-10T02:11:57.277Z,56.20
2018-08-10T02:15:00.492Z,56.30
2018-08-10T02:18:03.838Z,56.00
2018-08-10T02:21:07.223Z,55.70
2018-08-10T02:24:10.346Z,56.00
2018-08-10T02:27:14.079Z,55.80
2018-08-10T02:30:18.555Z,54.90
2018-08-10T02:33:21.803Z,54.80
2018-08-10T02:36:24.803Z,54.90
2018-08-10T02:39:27.954Z,56.00
2018-08-10T02:42:37.168Z,55.30
2018-08-10T02:46:01.147Z,55.70
2018-08-10T02:49:05.995Z,56.10
2018-08-10T02:52:09.382Z,56.00
2018-08-10T02:55:13.135Z,56.00
2018-08-10T02:58:16.250Z,56.40
2018-08-10T03:01:19.367Z,56.60
2018-08-10T03:04:22.569Z,56.90
2018-08-10T03:07:25.745Z,56.50
2018-08-10T03:10:28.882Z,56.30
2018-08-10T03:13:32.011Z,56.60
2018-08-10T03:16:35.280Z,56.30
2018-08-10T03:19:38.443Z,56.70
2018-08-10T03:22:41.626Z,57.00
2018-08-10T03:25:44.763Z,56.70
2018-08-10T03:28:47.955Z,56.80
2018-08-10T03:31:51.104Z,56.90
2018-08-10T03:34:54.198Z,56.60
2018-08-10T03:37:57.290Z,56.90
2018-08-10T03:41:00.579Z,56.70
2018-08-10T03:44:03.771Z,57.20
2018-08-10T03:47:06.874Z,56.60
2018-08-10T03:50:12.615Z,57.20
2018-08-10T03:53:15.770Z,56.70
2018-08-10T03:56:18.859Z,56.40
2018-08-10T03:59:21.950Z,56.60
2018-08-10T04:02:25.166Z,56.60
2018-08-10T04:05:28.389Z,56.30
2018-08-10T04:08:31.482Z,56.40
2018-08-10T04:11:34.645Z,56.70
2018-08-10T04:14:37.879Z,56.90
2018-08-10T04:17:41.249Z,56.60
2018-08-10T04:20:44.390Z,56.50
2018-08-10T04:23:47.542Z,57.00
2018-08-10T04:26:50.642Z,57.10
2018-08-10T04:29:53.814Z,57.20
2018-08-10T04:32:57.021Z,57.80
2018-08-10T04:36:01.392Z,58.30
2018-08-10T04:39:09.603Z,58.10
2018-08-10T04:42:12.734Z,58.30
2018-08-10T04:45:16.000Z,58.20
2018-08-10T04:48:19.199Z,58.70
2018-08-10T04:51:22.210Z,58.80
2018-08-10T04:54:25.343Z,59.50
2018-08-10T04:57:28.513Z,59.20
2018-08-10T05:00:31.656Z,59.70
2018-08-10T05:03:34.897Z,59.00
2018-08-10T05:06:38.009Z,59.70
2018-08-10T05:09:41.105Z,59.80
2018-08-10T05:12:45.386Z,59.70
2018-08-10T05:15:49.144Z,59.40
2018-08-10T05:18:52.346Z,59.30
2018-08-10T05:21:56.811Z,60.00
2018-08-10T05:25:01.188Z,59.50
2018-08-10T05:28:06.997Z,59.00
2018-08-10T05:31:12.841Z,58.90
2018-08-10T05:34:17.819Z,59.20
2018-08-10T05:37:21.323Z,58.90
2018-08-10T05:40:25.543Z,58.90
2018-08-10T05:43:29.513Z,59.00
2018-08-10T05:46:32.687Z,58.80
2018-08-10T05:49:36.656Z,58.80
2018-08-10T05:52:41.538Z,58.50
2018-08-10T05:55:46.549Z,58.50
2018-08-10T05:58:49.726Z,59.00
2018-08-10T06:01:52.958Z,58.80
2018-08-10T06:04:56.834Z,59.80
2018-08-10T06:07:59.944Z,59.20
2018-08-10T06:11:09.911Z,58.70
2018-08-10T06:14:13.904Z,58.30
2018-08-10T06:17:16.836Z,58.10
2018-08-10T06:20:19.802Z,58.40
2018-08-10T06:23:22.883Z,58.40
2018-08-10T06:26:25.879Z,57.70
2018-08-10T06:29:29.039Z,58.90
2018-08-10T06:32:32.099Z,58.30
2018-08-10T06:35:35.085Z,57.50
2018-08-10T06:38:38.126Z,56.90
2018-08-10T06:41:41.197Z,56.60
2018-08-10T06:44:44.202Z,56.00
2018-08-10T06:47:47.112Z,56.60
2018-08-10T06:50:50.054Z,56.10
2018-08-10T06:53:53.008Z,56.30
2018-08-10T06:56:55.993Z,55.70
2018-08-10T06:59:59.081Z,56.20
2018-08-10T07:03:05.294Z,56.70
2018-08-10T07:06:08.388Z,56.20
2018-08-10T07:09:12.537Z,55.60
2018-08-10T07:12:15.638Z,56.40
2018-08-10T07:15:18.703Z,54.70
2018-08-10T07:18:22.147Z,54.60
2018-08-10T07:21:25.187Z,54.70
2018-08-10T07:24:28.106Z,54.50
2018-08-10T07:27:31.227Z,54.70
2018-08-10T07:30:34.412Z,54.60
2018-08-10T07:33:37.349Z,54.20
2018-08-10T07:36:40.289Z,54.40
2018-08-10T07:39:43.476Z,54.30
2018-08-10T07:42:46.491Z,54.30
2018-08-10T07:45:49.496Z,54.20
2018-08-10T07:48:52.659Z,54.50
2018-08-10T07:51:55.741Z,54.70
2018-08-10T07:54:58.825Z,54.30
2018-08-10T07:58:01.879Z,54.30
2018-08-10T08:01:04.963Z,54.70
2018-08-10T08:04:08.638Z,54.50
2018-08-10T08:07:11.705Z,54.90
2018-08-10T08:10:14.723Z,55.40
2018-08-10T08:13:17.655Z,54.90
2018-08-10T08:16:20.619Z,55.20
2018-08-10T08:19:23.655Z,54.70
2018-08-10T08:22:26.646Z,54.60
2018-08-10T08:25:29.790Z,54.60
2018-08-10T08:28:33.230Z,54.50
2018-08-10T08:31:36.264Z,53.60
2018-08-10T08:34:39.569Z,54.10
2018-08-10T08:37:42.536Z,52.90
2018-08-10T08:40:48.102Z,52.80
2018-08-10T08:44:34.966Z,52.30
2018-08-10T08:47:38.190Z,53.00
2018-08-10T08:50:42.566Z,52.60
2018-08-10T08:53:45.599Z,52.80
2018-08-10T08:56:51.621Z,50.90
2018-08-10T08:59:54.589Z,50.90
2018-08-10T09:02:57.650Z,51.80
2018-08-10T09:06:01.627Z,51.40
2018-08-10T09:09:40.264Z,50.90
2018-08-10T09:12:43.246Z,49.50
2018-08-10T09:15:46.164Z,49.10
2018-08-10T09:18:49.357Z,48.30
2018-08-10T09:21:52.298Z,47.50
2018-08-10T09:24:55.302Z,46.00
2018-08-10T09:27:58.352Z,46.30
2018-08-10T09:31:01.335Z,46.10
2018-08-10T09:34:04.306Z,45.50
2018-08-10T09:37:08.469Z,45.80
2018-08-10T09:40:17.196Z,44.50
2018-08-10T09:43:20.195Z,45.30
2018-08-10T09:46:23.210Z,45.80
2018-08-10T09:49:33.931Z,45.40
2018-08-10T09:52:39.987Z,45.60
2018-08-10T09:55:42.941Z,46.00
2018-08-10T09:58:45.951Z,46.20
2018-08-10T10:01:54.804Z,46.00
2018-08-10T10:04:57.787Z,46.00
2018-08-10T10:08:01.181Z,46.50
2018-08-10T10:11:04.334Z,47.70
2018-08-10T10:14:08.238Z,48.40
2018-08-10T10:17:11.310Z,48.40
2018-08-10T10:20:14.636Z,47.80
2018-08-10T10:23:17.718Z,45.00
2018-08-10T10:26:20.811Z,45.30
2018-08-10T10:29:23.919Z,44.80
2018-08-10T10:32:27.140Z,43.30
2018-08-10T10:35:30.345Z,42.60
2018-08-10T10:38:33.416Z,43.00
2018-08-10T10:41:36.572Z,41.50
2018-08-10T10:44:39.614Z,42.30
2018-08-10T10:47:43.822Z,43.40
2018-08-10T10:50:47.034Z,43.10
2018-08-10T10:53:50.110Z,44.30
2018-08-10T10:56:53.294Z,43.50
2018-08-10T10:59:57.052Z,43.60
2018-08-10T11:03:00.165Z,42.10
2018-08-10T11:06:10.180Z,41.10
2018-08-10T11:09:13.279Z,40.80
2018-08-10T11:12:16.514Z,40.60
2018-08-10T11:15:19.598Z,39.70
2018-08-10T11:18:22.757Z,37.90
2018-08-10T11:21:25.906Z,38.00
2018-08-10T11:24:28.986Z,38.00
2018-08-10T11:27:32.205Z,36.80
2018-08-10T11:30:35.389Z,38.10
2018-08-10T11:33:38.523Z,37.50
2018-08-10T11:36:41.729Z,38.70
2018-08-10T11:39:44.780Z,37.70
2018-08-10T11:42:49.897Z,37.50
2018-08-10T11:45:53.556Z,37.40
2018-08-10T11:48:57.385Z,37.30
2018-08-10T11:52:00.856Z,36.60
2018-08-10T11:55:04.599Z,37.90
2018-08-10T11:58:14.381Z,35.80
2018-08-10T12:01:17.542Z,36.50
2018-08-10T12:04:20.722Z,35.60
2018-08-10T12:07:23.949Z,35.60
2018-08-10T12:10:27.216Z,35.30
2018-08-10T12:13:30.455Z,36.20
2018-08-10T12:16:33.898Z,38.20
2018-08-10T12:19:37.130Z,38.20
2018-08-10T12:22:41.170Z,37.50
2018-08-10T12:25:44.238Z,36.00
2018-08-10T12:28:47.324Z,35.90
2018-08-10T12:31:50.572Z,36.50
2018-08-10T12:34:53.626Z,36.70
2018-08-10T12:37:56.762Z,38.10
2018-08-10T12:41:00.026Z,37.10
2018-08-10T12:44:03.173Z,36.70
2018-08-10T12:47:06.414Z,37.30
2018-08-10T12:50:09.802Z,38.10
2018-08-10T12:53:12.994Z,36.40
2018-08-10T12:56:16.122Z,36.20
2018-08-10T12:59:19.255Z,37.50
2018-08-10T13:02:22.300Z,36.10
2018-08-10T13:05:25.386Z,36.60
2018-08-10T13:08:28.596Z,36.30
2018-08-10T13:11:31.678Z,35.60
2018-08-10T13:14:34.802Z,35.60
2018-08-10T13:17:37.933Z,35.70
2018-08-10T13:20:41.017Z,37.20
2018-08-10T13:23:44.177Z,34.60
2018-08-10T13:26:47.238Z,35.00
2018-08-10T13:29:50.288Z,35.20
2018-08-10T13:32:53.424Z,37.80
2018-08-10T13:35:56.562Z,36.10
2018-08-10T13:38:59.668Z,36.00
2018-08-10T13:42:02.903Z,36.30
2018-08-10T13:45:09.599Z,35.80
2018-08-10T13:48:12.731Z,34.20
2018-08-10T13:51:15.879Z,33.90
2018-08-10T13:54:18.988Z,35.50
2018-08-10T13:57:22.074Z,34.90
2018-08-10T14:00:25.533Z,33.90
2018-08-10T14:03:28.784Z,31.80
2018-08-10T14:06:31.959Z,31.80
2018-08-10T14:09:35.114Z,30.90
2018-08-10T14:12:38.181Z,30.50
2018-08-10T14:15:41.343Z,29.30
2018-08-10T14:18:44.450Z,31.10
2018-08-10T14:21:47.554Z,30.70
2018-08-10T14:24:50.679Z,31.00
2018-08-10T14:27:53.763Z,30.80
2018-08-10T14:30:56.915Z,31.30
2018-08-10T14:34:00.078Z,31.80
2018-08-10T14:37:03.543Z,31.00
2018-08-10T14:40:10.227Z,32.20
2018-08-10T14:43:13.725Z,31.50
2018-08-10T14:46:17.029Z,31.90
2018-08-10T14:49:20.343Z,30.50
2018-08-10T14:52:23.710Z,30.00
2018-08-10T14:55:27.141Z,30.20
2018-08-10T14:58:31.722Z,29.60
2018-08-10T15:01:35.366Z,30.50
2018-08-10T15:04:38.939Z,30.00
2018-08-10T15:07:42.704Z,31.20
2018-08-10T15:10:52.663Z,30.10
2018-08-10T15:13:55.927Z,31.10
2018-08-10T15:16:59.284Z,31.60
2018-08-10T15:20:02.728Z,31.40
2018-08-10T15:23:05.890Z,31.80
2018-08-10T15:26:09.207Z,31.30
2018-08-10T15:29:19.353Z,31.50
2018-08-10T15:32:22.652Z,31.80
2018-08-10T15:35:25.983Z,31.50
2018-08-10T15:38:29.868Z,32.60
2018-08-10T15:41:33.091Z,32.10
2018-08-10T15:44:36.480Z,33.40
2018-08-10T15:47:40.076Z,32.40
2018-08-10T15:50:43.535Z,32.60
2018-08-10T15:53:46.802Z,32.50
2018-08-10T15:57:59.988Z,32.70
2018-08-10T16:01:03.621Z,32.40
2018-08-10T16:04:07.366Z,32.30
2018-08-10T16:07:10.698Z,32.10
2018-08-10T16:10:14.062Z,32.40
2018-08-10T16:13:17.439Z,32.40
2018-08-10T16:16:20.823Z,33.00
2018-08-10T16:19:24.612Z,33.90
2018-08-10T16:22:27.872Z,32.60
2018-08-10T16:25:31.381Z,32.10
2018-08-10T16:28:34.838Z,32.60
2018-08-10T16:31:38.179Z,33.80
2018-08-10T16:34:41.596Z,33.50
2018-08-10T16:37:46.188Z,33.40
2018-08-10T16:40:49.304Z,33.00
2018-08-10T16:43:52.584Z,33.90
2018-08-10T16:46:55.765Z,34.00
2018-08-10T16:49:59.236Z,33.70
2018-08-10T16:53:02.543Z,34.60
2018-08-10T16:56:06.084Z,33.80
2018-08-10T16:59:11.682Z,33.20
2018-08-10T17:02:15.100Z,33.30
2018-08-10T17:05:18.752Z,34.20
2018-08-10T17:08:22.374Z,34.30
2018-08-10T17:11:25.780Z,34.40
2018-08-10T17:14:29.281Z,34.20
2018-08-10T17:17:32.775Z,34.40
2018-08-10T17:20:36.154Z,34.20
2018-08-10T17:23:40.169Z,33.70
2018-08-10T17:26:43.571Z,33.50
2018-08-10T17:29:46.854Z,33.00
2018-08-10T17:32:50.061Z,33.50
2018-08-10T17:36:00.304Z,34.70
2018-08-10T17:39:08.346Z,33.30
2018-08-10T17:42:11.613Z,33.00
2018-08-10T17:45:16.390Z,33.40
2018-08-10T17:48:20.000Z,33.40
2018-08-10T17:51:30.025Z,32.70
2018-08-10T17:54:33.411Z,33.50
2018-08-10T17:57:36.900Z,32.80
2018-08-10T18:00:40.216Z,33.50
2018-08-10T18:03:43.689Z,32.70
2018-08-10T18:06:47.863Z,34.40
2018-08-10T18:09:51.291Z,34.90
2018-08-10T18:12:54.761Z,33.90
2018-08-10T18:15:58.180Z,34.40
2018-08-10T18:19:01.644Z,33.20
2018-08-10T18:22:05.243Z,33.50
2018-08-10T18:25:11.067Z,33.80
2018-08-10T18:28:14.886Z,33.70
2018-08-10T18:31:19.202Z,34.70
2018-08-10T18:34:23.473Z,34.20
2018-08-10T18:37:26.935Z,35.10
2018-08-10T18:40:30.416Z,34.50
2018-08-10T18:43:33.763Z,36.10
2018-08-10T18:46:38.412Z,35.90
2018-08-10T18:49:41.691Z,36.50
2018-08-10T18:52:45.261Z,37.70
2018-08-10T18:55:48.720Z,39.10
2018-08-10T18:58:52.763Z,40.00
2018-08-10T19:01:56.006Z,39.80
2018-08-10T19:04:59.409Z,40.70
2018-08-10T19:08:02.567Z,40.80
2018-08-10T19:11:06.093Z,40.70
2018-08-10T19:14:09.743Z,42.00
2018-08-10T19:17:13.010Z,41.40
2018-08-10T19:20:16.467Z,42.00
2018-08-10T19:23:19.740Z,42.80
2018-08-10T19:26:23.264Z,42.40
2018-08-10T19:29:26.401Z,43.10
2018-08-10T19:32:29.619Z,43.60
2018-08-10T19:35:32.741Z,43.90
2018-08-10T19:38:36.170Z,44.10
2018-08-10T19:41:39.591Z,44.50
2018-08-10T19:44:43.232Z,44.90
2018-08-10T19:47:46.526Z,44.90
2018-08-10T19:50:49.732Z,44.90
2018-08-10T19:53:53.155Z,45.10
2018-08-10T19:56:56.567Z,44.70
2018-08-10T19:59:59.857Z,44.90
2018-08-10T20:03:03.911Z,45.30
2018-08-10T20:06:07.351Z,44.70
2018-08-10T20:09:12.564Z,44.50
2018-08-10T20:12:16.104Z,44.90
2018-08-10T20:15:19.487Z,45.30
2018-08-10T20:18:22.874Z,45.50
2018-08-10T20:21:26.205Z,45.30
2018-08-10T20:24:29.491Z,45.60
2018-08-10T20:27:33.466Z,45.50
2018-08-10T20:30:36.953Z,45.40
2018-08-10T20:33:45.666Z,46.10
2018-08-10T20:36:50.554Z,45.90
2018-08-10T20:39:53.981Z,46.20
2018-08-10T20:42:57.501Z,46.10
2018-08-10T20:46:01.111Z,45.70
2018-08-10T20:49:05.189Z,45.70
2018-08-10T20:52:08.797Z,46.00
2018-08-10T20:55:12.271Z,45.80
2018-08-10T20:58:16.139Z,46.10
2018-08-10T21:01:19.490Z,46.00
2018-08-10T21:04:22.769Z,45.60
2018-08-10T21:07:25.774Z,46.60
2018-08-10T21:10:28.825Z,46.00
2018-08-10T21:13:31.922Z,46.40
2018-08-10T21:16:34.962Z,46.60
2018-08-10T21:20:00.689Z,44.90
2018-08-10T21:23:05.589Z,45.90
2018-08-10T21:26:10.519Z,46.10
2018-08-10T21:29:14.733Z,45.80
2018-08-10T21:32:18.257Z,43.90
2018-08-10T21:35:23.440Z,45.20
2018-08-10T21:38:26.476Z,45.50
2018-08-10T21:41:29.590Z,45.80
2018-08-10T21:44:32.720Z,43.30
2018-08-10T21:47:36.411Z,45.00
2018-08-10T21:50:39.641Z,45.50
2018-08-10T21:53:42.733Z,43.00
2018-08-10T21:56:45.820Z,43.30
2018-08-10T21:59:48.969Z,42.80
2018-08-10T22:02:52.113Z,43.40
2018-08-10T22:05:56.120Z,41.40
2018-08-10T22:08:59.534Z,42.60
2018-08-10T22:12:02.640Z,42.60
2018-08-10T22:15:12.322Z,42.70
2018-08-10T22:18:21.161Z,41.90
2018-08-10T22:21:24.190Z,42.60
2018-08-10T22:24:27.267Z,42.90
2018-08-10T22:27:30.320Z,41.80
2018-08-10T22:30:33.477Z,41.70
2018-08-10T22:33:36.566Z,42.20
2018-08-10T22:36:39.880Z,42.30
2018-08-10T22:39:42.934Z,42.60
2018-08-10T22:42:46.072Z,41.70
2018-08-10T22:45:49.164Z,42.20
2018-08-10T22:48:52.326Z,43.10
2018-08-10T22:51:55.443Z,41.60
2018-08-10T22:54:58.572Z,42.00
2018-08-10T22:58:01.681Z,42.40
2018-08-10T23:01:04.966Z,42.10
2018-08-10T23:04:08.258Z,42.10
2018-08-10T23:07:11.503Z,42.70
2018-08-10T23:10:15.157Z,43.20
2018-08-10T23:13:18.425Z,42.60
2018-08-10T23:16:21.545Z,42.80
2018-08-10T23:19:24.583Z,43.00
2018-08-10T23:22:27.696Z,43.20
2018-08-10T23:25:30.993Z,42.60
2018-08-10T23:28:34.103Z,42.70
2018-08-10T23:31:37.214Z,43.40
2018-08-10T23:34:40.314Z,42.40
2018-08-10T23:37:43.345Z,42.60
2018-08-10T23:40:46.499Z,42.60
2018-08-10T23:43:49.658Z,43.20
2018-08-10T23:46:52.727Z,43.10
2018-08-10T23:49:55.915Z,43.20
2018-08-10T23:52:59.040Z,43.30
2018-08-10T23:56:02.137Z,43.50
2018-08-10T23:59:05.184Z,43.40
